Bookmark and Share
Track history (hours):
 

Cape Bata

Last reported at 2014-Apr-23 15:12 UTC. Time now 2014-Apr-24 02:30 UTC.
Position N 51°51' E 002°38'.

Length 274 m; draft 15.9 m.

Type: Tanker. MMSI: 538090162.

NotesDate/timePositionNaut miles runAvg speedWind from/ knotsBaromVisibWave heightAir tempDewpointWater temp
2014-Apr-23 15:12N 51°51' E 002°38'710.5
2014-Apr-23 14:33N 51°44' E 002°34'1110.9
2014-Apr-23 13:33N 51°35' E 002°24'1111.0
2014-Apr-23 12:33N 51°27' E 002°12'8 8.2
2014-Apr-23 11:32N 51°20' E 002°07'7 6.6
2014-Apr-23 10:33N 51°14' E 002°03'7 7.3
2014-Apr-23 09:33N 51°10' E 001°53'8 8.0
2014-Apr-23 08:33N 51°04' E 001°44'1411.8
2014-Apr-23 07:24N 50°54' E 001°29'1214.3
2014-Apr-23 06:33N 50°42' E 001°22'1813.6
2014-Apr-23 05:14N 50°30' E 001°02'913.0
2014-Apr-23 04:32N 50°27' E 000°49'1313.6
2014-Apr-23 03:33N 50°23' E 000°29'1414.1
2014-Apr-23 02:33N 50°20' E 000°07'  
2014-Apr-18 13:16N 38°17' W 009°40'1412.1
2014-Apr-18 12:05N 38°10' W 009°24'612.1
2014-Apr-18 11:33N 38°07' W 009°16'1212.2
2014-Apr-18 10:33N 38°03' W 009°02'1010.1
2014-Apr-18 09:33N 37°55' W 008°53'1 0.0
2014-Apr-17 06:19N 37°57' W 008°53'3 3.7
2014-Apr-17 05:33N 37°54' W 008°53'1 1.1
2014-Apr-17 04:33N 37°53' W 008°53'0 0.0
2014-Apr-17 03:33N 37°53' W 008°53'0 0.0
2014-Apr-17 02:33N 37°53' W 008°53'0 0.0
2014-Apr-17 01:33N 37°53' W 008°53'0 0.1
2014-Apr-17 00:33N 37°53' W 008°53'0 0.0
2014-Apr-16 23:33N 37°53' W 008°53'0 0.0
2014-Apr-16 22:33N 37°53' W 008°53'0 0.0
2014-Apr-16 21:33N 37°53' W 008°53'0 0.0
2014-Apr-16 20:30N 37°53' W 008°53'0 0.0
2014-Apr-16 19:33N 37°53' W 008°53'0 0.2
2014-Apr-16 18:34N 37°53' W 008°53'4 4.0
2014-Apr-16 17:33N 37°51' W 008°58'1010.3
2014-Apr-16 16:33N 37°45' W 009°09'1312.5
2014-Apr-16 15:29N 37°35' W 009°21'  

Dump ship's entire track history

sailing weather and tide predictions

Cape Bata — V7EF2 — position and weather